TimeMDT,TemperatureF,Dew PointF,Humidity,Sea Level PressureIn,VisibilityMPH,Wind Direction,Wind SpeedMPH,Gust SpeedMPH,PrecipitationIn,Events,Conditions,WindDirDegrees,DateUTC
12:51 AM,28.0,23.0,81,29.95,-9999.0,Calm,Calm,-,N/A,,Unknown,0,2013-04-02 06:51:00
1:51 AM,28.0,23.0,81,29.96,-9999.0,South,3.5,-,N/A,,Unknown,170,2013-04-02 07:51:00
2:51 AM,27.0,21.9,81,29.95,-9999.0,Calm,Calm,-,N/A,,Unknown,0,2013-04-02 08:51:00
3:51 AM,24.1,21.9,91,29.97,-9999.0,South,3.5,-,N/A,,Unknown,170,2013-04-02 09:51:00
4:51 AM,25.0,21.9,88,29.97,-9999.0,Calm,Calm,-,N/A,,Unknown,0,2013-04-02 10:51:00
5:51 AM,23.0,19.9,88,30.00,-9999.0,Calm,Calm,-,N/A,,Unknown,0,2013-04-02 11:51:00
6:51 AM,21.9,19.9,92,30.02,-9999.0,Calm,Calm,-,N/A,,Unknown,0,2013-04-02 12:51:00
7:51 AM,21.0,19.0,92,30.07,-9999.0,Calm,Calm,-,N/A,,Unknown,0,2013-04-02 13:51:00
8:51 AM,28.0,25.0,88,30.09,-9999.0,Calm,Calm,-,N/A,,Unknown,0,2013-04-02 14:51:00
9:51 AM,34.0,26.1,73,30.06,-9999.0,Calm,Calm,-,N/A,,Unknown,0,2013-04-02 15:51:00
10:51 AM,39.0,26.1,60,30.05,-9999.0,North,3.5,-,N/A,,Unknown,350,2013-04-02 16:51:00
11:51 AM,46.0,27.0,47,30.01,-9999.0,Calm,Calm,-,N/A,,Unknown,0,2013-04-02 17:51:00
12:51 PM,51.1,25.0,36,29.99,-9999.0,NNW,4.6,-,N/A,,Unknown,330,2013-04-02 18:51:00
1:51 PM,54.0,25.0,33,29.96,-9999.0,North,3.5,-,N/A,,Unknown,10,2013-04-02 19:51:00
2:51 PM,55.9,21.0,26,29.95,-9999.0,NW,8.1,-,N/A,,Unknown,310,2013-04-02 20:51:00
3:51 PM,57.0,21.9,26,29.95,-9999.0,North,6.9,-,N/A,,Unknown,10,2013-04-02 21:51:00
4:51 PM,55.9,21.9,27,29.94,-9999.0,Variable,6.9,-,N/A,,Unknown,0,2013-04-02 22:51:00
5:51 PM,57.0,21.0,25,29.96,-9999.0,West,4.6,-,N/A,,Unknown,280,2013-04-02 23:51:00
6:51 PM,55.0,19.9,25,29.96,-9999.0,Calm,Calm,-,N/A,,Unknown,0,2013-04-03 00:51:00
7:51 PM,46.9,27.0,46,30.02,-9999.0,West,4.6,-,N/A,,Unknown,280,2013-04-03 01:51:00
8:51 PM,39.9,27.0,60,30.04,-9999.0,Calm,Calm,-,N/A,,Unknown,0,2013-04-03 02:51:00
9:51 PM,36.0,28.0,73,30.06,-9999.0,Calm,Calm,-,N/A,,Unknown,0,2013-04-03 03:51:00
10:51 PM,34.0,28.0,79,30.05,-9999.0,Calm,Calm,-,N/A,,Unknown,0,2013-04-03 04:51:00
11:51 PM,32.0,27.0,82,30.03,-9999.0,SSE,3.5,-,N/A,,Unknown,160,2013-04-03 05:51:00